Terminal Aerodrome Forecast
Issued by NWS Portland, ME

Home | Current Version | Previous Version | Text Only | Print | Product List | Glossary On
Versions: 1 2 3 4 5 6 7 8 9 10 11 12 13 14 15 16 17 18 19 20 21 22 23 24 25 26 27 28 29
000
FTUS41 KGYX 291734
TAFPWM
TAF
KPWM 291734Z 2918/3018 09010KT P6SM OVC014
      TEMPO 2919/2922 SCT014 OVC025
     FM292300 13005KT 3SM -DZ BR OVC007
     FM301200 19008KT 5SM SHRA BR OVC010 WS010/23025KT
     FM301600 20008KT 6SM HZ BKN035=

USA.gov is the U.S. government's official web portal to all federal, state and local government web resources and services.